sensor_id;sensor_type;location;lat;lon;timestamp;P1;durP1;ratioP1;P2;durP2;ratioP2
10977;SDS011;5542;48.272;10.794;2024-02-21T00:02:18;2.15;;;1.65;;
10977;SDS011;5542;48.272;10.794;2024-02-21T00:04:44;1.77;;;1.60;;
10977;SDS011;5542;48.272;10.794;2024-02-21T00:07:11;2.70;;;1.88;;
10977;SDS011;5542;48.272;10.794;2024-02-21T00:09:39;2.75;;;1.83;;
10977;SDS011;5542;48.272;10.794;2024-02-21T00:12:06;3.35;;;1.98;;
10977;SDS011;5542;48.272;10.794;2024-02-21T00:14:33;2.20;;;2.00;;
10977;SDS011;5542;48.272;10.794;2024-02-21T00:16:59;2.15;;;1.67;;
10977;SDS011;5542;48.272;10.794;2024-02-21T00:19:26;3.17;;;1.83;;
10977;SDS011;5542;48.272;10.794;2024-02-21T00:21:53;1.90;;;1.75;;
10977;SDS011;5542;48.272;10.794;2024-02-21T00:24:19;1.70;;;1.60;;
10977;SDS011;5542;48.272;10.794;2024-02-21T00:26:47;2.55;;;2.05;;
10977;SDS011;5542;48.272;10.794;2024-02-21T00:29:14;2.97;;;1.85;;
10977;SDS011;5542;48.272;10.794;2024-02-21T00:31:40;3.13;;;1.75;;
10977;SDS011;5542;48.272;10.794;2024-02-21T00:34:07;1.60;;;1.45;;
10977;SDS011;5542;48.272;10.794;2024-02-21T00:36:33;2.58;;;2.22;;
10977;SDS011;5542;48.272;10.794;2024-02-21T00:39:00;3.05;;;1.75;;
10977;SDS011;5542;48.272;10.794;2024-02-21T00:41:27;2.92;;;2.00;;
10977;SDS011;5542;48.272;10.794;2024-02-21T00:43:54;2.80;;;1.67;;
10977;SDS011;5542;48.272;10.794;2024-02-21T00:46:21;2.90;;;1.63;;
10977;SDS011;5542;48.272;10.794;2024-02-21T00:48:48;2.27;;;1.60;;
10977;SDS011;5542;48.272;10.794;2024-02-21T00:51:15;2.80;;;2.15;;
10977;SDS011;5542;48.272;10.794;2024-02-21T00:53:41;1.63;;;1.52;;
10977;SDS011;5542;48.272;10.794;2024-02-21T00:56:08;1.80;;;1.63;;
10977;SDS011;5542;48.272;10.794;2024-02-21T00:58:35;1.90;;;1.80;;
10977;SDS011;5542;48.272;10.794;2024-02-21T01:01:03;2.25;;;1.90;;
10977;SDS011;5542;48.272;10.794;2024-02-21T01:03:29;1.73;;;1.55;;
10977;SDS011;5542;48.272;10.794;2024-02-21T01:05:56;1.70;;;1.60;;
10977;SDS011;5542;48.272;10.794;2024-02-21T01:08:22;2.23;;;2.00;;
10977;SDS011;5542;48.272;10.794;2024-02-21T01:10:49;2.20;;;2.00;;
10977;SDS011;5542;48.272;10.794;2024-02-21T01:13:16;2.17;;;1.60;;
10977;SDS011;5542;48.272;10.794;2024-02-21T01:15:42;3.58;;;1.73;;
10977;SDS011;5542;48.272;10.794;2024-02-21T01:18:10;3.00;;;1.67;;
10977;SDS011;5542;48.272;10.794;2024-02-21T01:20:37;1.85;;;1.60;;
10977;SDS011;5542;48.272;10.794;2024-02-21T01:23:03;2.22;;;1.73;;
10977;SDS011;5542;48.272;10.794;2024-02-21T01:25:30;2.03;;;1.85;;
10977;SDS011;5542;48.272;10.794;2024-02-21T01:27:57;2.63;;;1.67;;
10977;SDS011;5542;48.272;10.794;2024-02-21T01:30:23;2.35;;;1.80;;
10977;SDS011;5542;48.272;10.794;2024-02-21T01:32:50;2.20;;;1.65;;
10977;SDS011;5542;48.272;10.794;2024-02-21T01:35:18;1.77;;;1.67;;
10977;SDS011;5542;48.272;10.794;2024-02-21T01:37:44;2.03;;;1.70;;
10977;SDS011;5542;48.272;10.794;2024-02-21T01:40:11;3.15;;;2.15;;
10977;SDS011;5542;48.272;10.794;2024-02-21T01:42:38;2.95;;;1.90;;
10977;SDS011;5542;48.272;10.794;2024-02-21T01:45:06;3.10;;;1.95;;
10977;SDS011;5542;48.272;10.794;2024-02-21T01:47:32;2.97;;;2.10;;
10977;SDS011;5542;48.272;10.794;2024-02-21T01:50:00;3.92;;;1.88;;
10977;SDS011;5542;48.272;10.794;2024-02-21T01:52:28;3.15;;;2.17;;
10977;SDS011;5542;48.272;10.794;2024-02-21T01:54:57;3.03;;;2.05;;
10977;SDS011;5542;48.272;10.794;2024-02-21T01:57:24;3.05;;;2.35;;
10977;SDS011;5542;48.272;10.794;2024-02-21T01:59:51;6.45;;;2.20;;
10977;SDS011;5542;48.272;10.794;2024-02-21T02:02:18;3.60;;;2.22;;
10977;SDS011;5542;48.272;10.794;2024-02-21T02:04:45;3.28;;;2.03;;
10977;SDS011;5542;48.272;10.794;2024-02-21T02:07:12;2.15;;;1.95;;
10977;SDS011;5542;48.272;10.794;2024-02-21T02:09:40;2.90;;;2.30;;
10977;SDS011;5542;48.272;10.794;2024-02-21T02:12:08;4.22;;;2.17;;
10977;SDS011;5542;48.272;10.794;2024-02-21T02:14:34;4.53;;;2.10;;
10977;SDS011;5542;48.272;10.794;2024-02-21T02:17:01;2.00;;;1.80;;
10977;SDS011;5542;48.272;10.794;2024-02-21T02:19:28;3.33;;;2.08;;
10977;SDS011;5542;48.272;10.794;2024-02-21T02:21:56;1.90;;;1.77;;
10977;SDS011;5542;48.272;10.794;2024-02-21T02:24:36;3.30;;;2.00;;
10977;SDS011;5542;48.272;10.794;2024-02-21T02:27:03;2.95;;;2.03;;
10977;SDS011;5542;48.272;10.794;2024-02-21T02:29:28;2.10;;;1.87;;
10977;SDS011;5542;48.272;10.794;2024-02-21T02:31:58;2.80;;;2.28;;
10977;SDS011;5542;48.272;10.794;2024-02-21T02:34:25;3.33;;;2.20;;
10977;SDS011;5542;48.272;10.794;2024-02-21T02:36:51;3.55;;;2.40;;
10977;SDS011;5542;48.272;10.794;2024-02-21T02:39:19;1.88;;;1.63;;
10977;SDS011;5542;48.272;10.794;2024-02-21T02:41:47;3.08;;;2.17;;
10977;SDS011;5542;48.272;10.794;2024-02-21T02:44:14;3.10;;;1.90;;
10977;SDS011;5542;48.272;10.794;2024-02-21T02:46:41;2.30;;;1.73;;
10977;SDS011;5542;48.272;10.794;2024-02-21T02:49:07;3.10;;;1.80;;
10977;SDS011;5542;48.272;10.794;2024-02-21T02:51:34;2.15;;;1.95;;
10977;SDS011;5542;48.272;10.794;2024-02-21T02:54:01;2.03;;;1.92;;
10977;SDS011;5542;48.272;10.794;2024-02-21T02:56:28;2.90;;;1.70;;
10977;SDS011;5542;48.272;10.794;2024-02-21T02:58:56;3.20;;;1.75;;
10977;SDS011;5542;48.272;10.794;2024-02-21T03:01:23;2.03;;;1.90;;
10977;SDS011;5542;48.272;10.794;2024-02-21T03:03:49;2.13;;;1.90;;
10977;SDS011;5542;48.272;10.794;2024-02-21T03:06:16;4.90;;;2.10;;
10977;SDS011;5542;48.272;10.794;2024-02-21T03:08:42;2.70;;;2.17;;
10977;SDS011;5542;48.272;10.794;2024-02-21T03:11:09;3.40;;;2.15;;
10977;SDS011;5542;48.272;10.794;2024-02-21T03:13:36;3.00;;;2.43;;
10977;SDS011;5542;48.272;10.794;2024-02-21T03:16:05;4.53;;;2.90;;
10977;SDS011;5542;48.272;10.794;2024-02-21T03:18:32;6.90;;;3.42;;
10977;SDS011;5542;48.272;10.794;2024-02-21T03:20:58;2.40;;;2.20;;
10977;SDS011;5542;48.272;10.794;2024-02-21T03:23:25;4.70;;;3.60;;
10977;SDS011;5542;48.272;10.794;2024-02-21T03:25:51;5.78;;;3.60;;
10977;SDS011;5542;48.272;10.794;2024-02-21T03:28:18;7.15;;;3.90;;
10977;SDS011;5542;48.272;10.794;2024-02-21T03:30:44;3.72;;;2.95;;
10977;SDS011;5542;48.272;10.794;2024-02-21T03:33:11;7.07;;;4.05;;
10977;SDS011;5542;48.272;10.794;2024-02-21T03:35:38;9.10;;;4.75;;
10977;SDS011;5542;48.272;10.794;2024-02-21T03:38:04;11.18;;;5.90;;
10977;SDS011;5542;48.272;10.794;2024-02-21T03:40:31;15.15;;;6.40;;
10977;SDS011;5542;48.272;10.794;2024-02-21T03:42:57;12.88;;;6.53;;
10977;SDS011;5542;48.272;10.794;2024-02-21T03:45:24;13.35;;;6.38;;
10977;SDS011;5542;48.272;10.794;2024-02-21T03:47:51;25.23;;;9.70;;
10977;SDS011;5542;48.272;10.794;2024-02-21T03:50:19;3.42;;;2.88;;
10977;SDS011;5542;48.272;10.794;2024-02-21T03:52:45;2.40;;;2.20;;
10977;SDS011;5542;48.272;10.794;2024-02-21T03:55:12;2.90;;;1.92;;
10977;SDS011;5542;48.272;10.794;2024-02-21T03:57:38;3.33;;;2.50;;
10977;SDS011;5542;48.272;10.794;2024-02-21T04:00:05;4.17;;;2.17;;
10977;SDS011;5542;48.272;10.794;2024-02-21T04:02:36;4.03;;;2.22;;
10977;SDS011;5542;48.272;10.794;2024-02-21T04:05:02;2.00;;;1.80;;
10977;SDS011;5542;48.272;10.794;2024-02-21T04:07:31;3.40;;;1.88;;
10977;SDS011;5542;48.272;10.794;2024-02-21T04:09:57;2.63;;;1.85;;
10977;SDS011;5542;48.272;10.794;2024-02-21T04:12:24;2.88;;;1.73;;
10977;SDS011;5542;48.272;10.794;2024-02-21T04:14:51;2.38;;;1.60;;
10977;SDS011;5542;48.272;10.794;2024-02-21T04:17:17;2.55;;;2.35;;
10977;SDS011;5542;48.272;10.794;2024-02-21T04:19:44;5.38;;;3.65;;
10977;SDS011;5542;48.272;10.794;2024-02-21T04:22:10;7.10;;;4.32;;
10977;SDS011;5542;48.272;10.794;2024-02-21T04:24:38;13.52;;;6.45;;
10977;SDS011;5542;48.272;10.794;2024-02-21T04:27:05;22.02;;;9.90;;
10977;SDS011;5542;48.272;10.794;2024-02-21T04:29:31;62.40;;;26.60;;
10977;SDS011;5542;48.272;10.794;2024-02-21T04:31:58;87.20;;;33.70;;
10977;SDS011;5542;48.272;10.794;2024-02-21T04:34:25;58.65;;;25.00;;
10977;SDS011;5542;48.272;10.794;2024-02-21T04:36:51;50.17;;;22.40;;
10977;SDS011;5542;48.272;10.794;2024-02-21T04:39:18;39.50;;;19.02;;
10977;SDS011;5542;48.272;10.794;2024-02-21T04:41:46;32.53;;;15.98;;
10977;SDS011;5542;48.272;10.794;2024-02-21T04:44:12;18.67;;;9.48;;
10977;SDS011;5542;48.272;10.794;2024-02-21T04:46:41;11.77;;;7.30;;
10977;SDS011;5542;48.272;10.794;2024-02-21T04:49:08;5.00;;;3.42;;
10977;SDS011;5542;48.272;10.794;2024-02-21T04:51:34;3.77;;;3.03;;
10977;SDS011;5542;48.272;10.794;2024-02-21T04:54:01;3.33;;;2.83;;
10977;SDS011;5542;48.272;10.794;2024-02-21T04:56:28;2.83;;;1.83;;
10977;SDS011;5542;48.272;10.794;2024-02-21T04:58:56;3.05;;;2.00;;
10977;SDS011;5542;48.272;10.794;2024-02-21T05:01:23;2.33;;;2.05;;
10977;SDS011;5542;48.272;10.794;2024-02-21T05:03:49;2.07;;;1.93;;
10977;SDS011;5542;48.272;10.794;2024-02-21T05:06:16;3.17;;;2.20;;
10977;SDS011;5542;48.272;10.794;2024-02-21T05:08:42;4.20;;;2.90;;
10977;SDS011;5542;48.272;10.794;2024-02-21T05:11:09;4.40;;;2.63;;
10977;SDS011;5542;48.272;10.794;2024-02-21T05:13:36;3.10;;;2.60;;
10977;SDS011;5542;48.272;10.794;2024-02-21T05:16:04;2.75;;;2.55;;
10977;SDS011;5542;48.272;10.794;2024-02-21T05:18:32;4.45;;;2.92;;
10977;SDS011;5542;48.272;10.794;2024-02-21T05:20:59;4.30;;;3.30;;
10977;SDS011;5542;48.272;10.794;2024-02-21T05:23:25;2.25;;;2.05;;
10977;SDS011;5542;48.272;10.794;2024-02-21T05:25:52;3.50;;;2.15;;
10977;SDS011;5542;48.272;10.794;2024-02-21T05:28:19;3.85;;;2.10;;
10977;SDS011;5542;48.272;10.794;2024-02-21T05:30:45;2.25;;;1.80;;
10977;SDS011;5542;48.272;10.794;2024-02-21T05:33:13;2.17;;;1.98;;
10977;SDS011;5542;48.272;10.794;2024-02-21T05:35:46;2.90;;;1.77;;
10977;SDS011;5542;48.272;10.794;2024-02-21T05:38:12;2.00;;;1.73;;
10977;SDS011;5542;48.272;10.794;2024-02-21T05:40:39;1.80;;;1.65;;
10977;SDS011;5542;48.272;10.794;2024-02-21T05:43:06;3.20;;;1.75;;
10977;SDS011;5542;48.272;10.794;2024-02-21T05:45:33;2.63;;;2.40;;
10977;SDS011;5542;48.272;10.794;2024-02-21T05:48:00;2.40;;;2.20;;
10977;SDS011;5542;48.272;10.794;2024-02-21T05:50:29;1.80;;;1.60;;
10977;SDS011;5542;48.272;10.794;2024-02-21T05:52:55;1.70;;;1.60;;
10977;SDS011;5542;48.272;10.794;2024-02-21T05:55:22;3.45;;;1.73;;
10977;SDS011;5542;48.272;10.794;2024-02-21T05:57:49;1.73;;;1.63;;
10977;SDS011;5542;48.272;10.794;2024-02-21T06:00:16;1.88;;;1.77;;
10977;SDS011;5542;48.272;10.794;2024-02-21T06:02:43;1.52;;;1.42;;
10977;SDS011;5542;48.272;10.794;2024-02-21T06:05:09;1.70;;;1.60;;
10977;SDS011;5542;48.272;10.794;2024-02-21T06:07:38;1.70;;;1.60;;
10977;SDS011;5542;48.272;10.794;2024-02-21T06:10:05;1.52;;;1.42;;
10977;SDS011;5542;48.272;10.794;2024-02-21T06:12:32;3.15;;;1.50;;
10977;SDS011;5542;48.272;10.794;2024-02-21T06:14:59;1.50;;;1.40;;
10977;SDS011;5542;48.272;10.794;2024-02-21T06:17:25;1.30;;;1.20;;
10977;SDS011;5542;48.272;10.794;2024-02-21T06:19:52;1.50;;;1.40;;
10977;SDS011;5542;48.272;10.794;2024-02-21T06:22:19;4.25;;;2.30;;
10977;SDS011;5542;48.272;10.794;2024-02-21T06:24:46;1.83;;;1.58;;
10977;SDS011;5542;48.272;10.794;2024-02-21T06:27:13;2.60;;;1.50;;
10977;SDS011;5542;48.272;10.794;2024-02-21T06:29:41;1.73;;;1.60;;
10977;SDS011;5542;48.272;10.794;2024-02-21T06:32:08;2.22;;;1.83;;
10977;SDS011;5542;48.272;10.794;2024-02-21T06:34:34;1.60;;;1.50;;
10977;SDS011;5542;48.272;10.794;2024-02-21T06:37:01;1.63;;;1.50;;
10977;SDS011;5542;48.272;10.794;2024-02-21T06:39:28;1.77;;;1.65;;
10977;SDS011;5542;48.272;10.794;2024-02-21T06:41:56;2.00;;;1.67;;
10977;SDS011;5542;48.272;10.794;2024-02-21T06:44:23;1.92;;;1.35;;
10977;SDS011;5542;48.272;10.794;2024-02-21T06:46:49;1.52;;;1.42;;
10977;SDS011;5542;48.272;10.794;2024-02-21T06:49:16;1.98;;;1.60;;
10977;SDS011;5542;48.272;10.794;2024-02-21T06:51:42;2.28;;;1.42;;
10977;SDS011;5542;48.272;10.794;2024-02-21T06:54:09;1.77;;;1.60;;
10977;SDS011;5542;48.272;10.794;2024-02-21T06:56:36;1.75;;;1.33;;
10977;SDS011;5542;48.272;10.794;2024-02-21T06:59:05;2.28;;;1.27;;
10977;SDS011;5542;48.272;10.794;2024-02-21T07:01:32;2.00;;;1.30;;
10977;SDS011;5542;48.272;10.794;2024-02-21T07:03:58;1.40;;;1.30;;
10977;SDS011;5542;48.272;10.794;2024-02-21T07:06:25;2.45;;;1.50;;
10977;SDS011;5542;48.272;10.794;2024-02-21T07:08:51;1.40;;;1.10;;
10977;SDS011;5542;48.272;10.794;2024-02-21T07:11:18;1.10;;;1.10;;
10977;SDS011;5542;48.272;10.794;2024-02-21T07:13:45;1.40;;;1.30;;
10977;SDS011;5542;48.272;10.794;2024-02-21T07:16:12;1.45;;;1.15;;
10977;SDS011;5542;48.272;10.794;2024-02-21T07:18:39;1.55;;;1.45;;
10977;SDS011;5542;48.272;10.794;2024-02-21T07:21:06;2.22;;;1.42;;
10977;SDS011;5542;48.272;10.794;2024-02-21T07:23:32;1.17;;;1.10;;
10977;SDS011;5542;48.272;10.794;2024-02-21T07:25:59;1.70;;;1.33;;
10977;SDS011;5542;48.272;10.794;2024-02-21T07:28:25;1.58;;;1.48;;
10977;SDS011;5542;48.272;10.794;2024-02-21T07:30:52;1.33;;;1.17;;
10977;SDS011;5542;48.272;10.794;2024-02-21T07:33:20;1.30;;;0.93;;
10977;SDS011;5542;48.272;10.794;2024-02-21T07:35:46;1.35;;;1.27;;
10977;SDS011;5542;48.272;10.794;2024-02-21T07:38:13;1.70;;;1.60;;
10977;SDS011;5542;48.272;10.794;2024-02-21T07:40:39;1.27;;;1.20;;
10977;SDS011;5542;48.272;10.794;2024-02-21T07:43:06;1.10;;;1.10;;
10977;SDS011;5542;48.272;10.794;2024-02-21T07:45:33;1.40;;;1.30;;
10977;SDS011;5542;48.272;10.794;2024-02-21T07:47:59;1.45;;;1.35;;
10977;SDS011;5542;48.272;10.794;2024-02-21T07:50:27;1.40;;;1.30;;
10977;SDS011;5542;48.272;10.794;2024-02-21T07:52:54;2.40;;;1.23;;
10977;SDS011;5542;48.272;10.794;2024-02-21T07:55:20;1.50;;;1.35;;
10977;SDS011;5542;48.272;10.794;2024-02-21T07:57:47;1.20;;;1.10;;
10977;SDS011;5542;48.272;10.794;2024-02-21T08:00:15;1.38;;;1.25;;
10977;SDS011;5542;48.272;10.794;2024-02-21T08:02:45;2.55;;;1.00;;
10977;SDS011;5542;48.272;10.794;2024-02-21T08:05:11;2.03;;;1.48;;
10977;SDS011;5542;48.272;10.794;2024-02-21T08:07:39;2.28;;;1.50;;
10977;SDS011;5542;48.272;10.794;2024-02-21T08:10:07;1.60;;;1.40;;
10977;SDS011;5542;48.272;10.794;2024-02-21T08:12:34;1.17;;;1.10;;
10977;SDS011;5542;48.272;10.794;2024-02-21T08:15:01;1.70;;;1.60;;
10977;SDS011;5542;48.272;10.794;2024-02-21T08:17:29;1.20;;;0.90;;
10977;SDS011;5542;48.272;10.794;2024-02-21T08:19:55;1.40;;;1.30;;
10977;SDS011;5542;48.272;10.794;2024-02-21T08:22:22;1.20;;;1.10;;
10977;SDS011;5542;48.272;10.794;2024-02-21T08:24:50;0.88;;;0.88;;
10977;SDS011;5542;48.272;10.794;2024-02-21T08:27:17;1.27;;;1.10;;
10977;SDS011;5542;48.272;10.794;2024-02-21T08:29:43;1.20;;;1.08;;
10977;SDS011;5542;48.272;10.794;2024-02-21T08:32:10;1.20;;;1.10;;
10977;SDS011;5542;48.272;10.794;2024-02-21T08:34:36;1.20;;;1.10;;
10977;SDS011;5542;48.272;10.794;2024-02-21T08:37:03;1.52;;;1.17;;
10977;SDS011;5542;48.272;10.794;2024-02-21T08:39:30;1.45;;;1.13;;
10977;SDS011;5542;48.272;10.794;2024-02-21T08:41:57;1.30;;;1.20;;
10977;SDS011;5542;48.272;10.794;2024-02-21T08:44:24;1.40;;;0.88;;
10977;SDS011;5542;48.272;10.794;2024-02-21T08:46:52;1.35;;;1.20;;
10977;SDS011;5542;48.272;10.794;2024-02-21T08:49:18;1.35;;;1.00;;
10977;SDS011;5542;48.272;10.794;2024-02-21T08:51:45;0.85;;;0.85;;
10977;SDS011;5542;48.272;10.794;2024-02-21T08:54:11;1.15;;;0.90;;
10977;SDS011;5542;48.272;10.794;2024-02-21T08:56:38;0.70;;;0.70;;
10977;SDS011;5542;48.272;10.794;2024-02-21T08:59:06;1.50;;;1.40;;
10977;SDS011;5542;48.272;10.794;2024-02-21T09:01:32;1.63;;;1.00;;
10977;SDS011;5542;48.272;10.794;2024-02-21T09:04:00;1.20;;;1.10;;
10977;SDS011;5542;48.272;10.794;2024-02-21T09:06:27;1.20;;;1.10;;
10977;SDS011;5542;48.272;10.794;2024-02-21T09:08:55;0.90;;;0.90;;
10977;SDS011;5542;48.272;10.794;2024-02-21T09:11:22;2.15;;;1.08;;
10977;SDS011;5542;48.272;10.794;2024-02-21T09:13:49;1.30;;;0.90;;
10977;SDS011;5542;48.272;10.794;2024-02-21T09:16:17;1.08;;;0.73;;
10977;SDS011;5542;48.272;10.794;2024-02-21T09:18:44;1.30;;;0.68;;
10977;SDS011;5542;48.272;10.794;2024-02-21T09:21:13;0.60;;;0.60;;
10977;SDS011;5542;48.272;10.794;2024-02-21T09:23:39;2.00;;;1.00;;
10977;SDS011;5542;48.272;10.794;2024-02-21T09:26:06;0.93;;;0.90;;
10977;SDS011;5542;48.272;10.794;2024-02-21T09:28:35;1.80;;;0.90;;
10977;SDS011;5542;48.272;10.794;2024-02-21T09:31:01;0.77;;;0.77;;
10977;SDS011;5542;48.272;10.794;2024-02-21T09:33:29;1.42;;;1.20;;
10977;SDS011;5542;48.272;10.794;2024-02-21T09:35:56;2.05;;;1.60;;
10977;SDS011;5542;48.272;10.794;2024-02-21T09:38:23;1.20;;;1.10;;
10977;SDS011;5542;48.272;10.794;2024-02-21T09:40:52;1.50;;;1.40;;
10977;SDS011;5542;48.272;10.794;2024-02-21T09:43:24;1.10;;;1.10;;
10977;SDS011;5542;48.272;10.794;2024-02-21T09:45:51;0.70;;;0.70;;
10977;SDS011;5542;48.272;10.794;2024-02-21T09:48:25;1.63;;;1.10;;
10977;SDS011;5542;48.272;10.794;2024-02-21T09:51:04;1.70;;;1.60;;
10977;SDS011;5542;48.272;10.794;2024-02-21T09:53:33;1.90;;;1.23;;
10977;SDS011;5542;48.272;10.794;2024-02-21T09:56:04;4.25;;;3.40;;
10977;SDS011;5542;48.272;10.794;2024-02-21T09:58:33;3.65;;;3.35;;
10977;SDS011;5542;48.272;10.794;2024-02-21T10:01:00;2.73;;;2.13;;
10977;SDS011;5542;48.272;10.794;2024-02-21T10:03:26;2.22;;;1.73;;
10977;SDS011;5542;48.272;10.794;2024-02-21T10:05:54;2.65;;;2.00;;
10977;SDS011;5542;48.272;10.794;2024-02-21T10:08:21;1.40;;;1.30;;
10977;SDS011;5542;48.272;10.794;2024-02-21T10:10:48;1.80;;;1.70;;
10977;SDS011;5542;48.272;10.794;2024-02-21T10:13:26;1.13;;;1.10;;
10977;SDS011;5542;48.272;10.794;2024-02-21T10:16:00;1.95;;;1.30;;
10977;SDS011;5542;48.272;10.794;2024-02-21T10:18:30;1.33;;;1.23;;
10977;SDS011;5542;48.272;10.794;2024-02-21T10:21:02;1.30;;;1.20;;
10977;SDS011;5542;48.272;10.794;2024-02-21T10:23:40;1.75;;;1.40;;
10977;SDS011;5542;48.272;10.794;2024-02-21T10:26:07;1.25;;;1.10;;
10977;SDS011;5542;48.272;10.794;2024-02-21T10:28:34;1.30;;;1.10;;
10977;SDS011;5542;48.272;10.794;2024-02-21T10:31:00;1.20;;;1.00;;
10977;SDS011;5542;48.272;10.794;2024-02-21T10:33:27;1.55;;;1.00;;
10977;SDS011;5542;48.272;10.794;2024-02-21T10:35:55;0.90;;;0.90;;
10977;SDS011;5542;48.272;10.794;2024-02-21T10:38:34;1.10;;;1.00;;
10977;SDS011;5542;48.272;10.794;2024-02-21T10:41:01;1.05;;;0.95;;
10977;SDS011;5542;48.272;10.794;2024-02-21T10:43:30;1.42;;;1.33;;
10977;SDS011;5542;48.272;10.794;2024-02-21T10:46:02;1.35;;;1.13;;
10977;SDS011;5542;48.272;10.794;2024-02-21T10:48:33;0.98;;;0.88;;
10977;SDS011;5542;48.272;10.794;2024-02-21T10:51:11;0.52;;;0.52;;
10977;SDS011;5542;48.272;10.794;2024-02-21T10:53:44;1.30;;;0.88;;
10977;SDS011;5542;48.272;10.794;2024-02-21T10:56:24;0.65;;;0.65;;
10977;SDS011;5542;48.272;10.794;2024-02-21T10:58:54;0.90;;;0.60;;
10977;SDS011;5542;48.272;10.794;2024-02-21T11:01:23;0.70;;;0.60;;
10977;SDS011;5542;48.272;10.794;2024-02-21T11:03:52;0.60;;;0.60;;
10977;SDS011;5542;48.272;10.794;2024-02-21T11:06:21;1.20;;;0.70;;
10977;SDS011;5542;48.272;10.794;2024-02-21T11:08:58;1.40;;;0.70;;
10977;SDS011;5542;48.272;10.794;2024-02-21T11:11:27;0.68;;;0.68;;
10977;SDS011;5542;48.272;10.794;2024-02-21T11:14:03;0.75;;;0.63;;
10977;SDS011;5542;48.272;10.794;2024-02-21T11:16:34;0.70;;;0.60;;
10977;SDS011;5542;48.272;10.794;2024-02-21T11:19:05;0.60;;;0.40;;
10977;SDS011;5542;48.272;10.794;2024-02-21T11:21:37;0.75;;;0.60;;
10977;SDS011;5542;48.272;10.794;2024-02-21T11:24:04;0.60;;;0.60;;
10977;SDS011;5542;48.272;10.794;2024-02-21T11:26:31;0.57;;;0.55;;
10977;SDS011;5542;48.272;10.794;2024-02-21T11:28:59;0.57;;;0.57;;
10977;SDS011;5542;48.272;10.794;2024-02-21T11:31:25;0.45;;;0.45;;
10977;SDS011;5542;48.272;10.794;2024-02-21T11:33:53;0.70;;;0.52;;
10977;SDS011;5542;48.272;10.794;2024-02-21T11:36:24;0.60;;;0.60;;
10977;SDS011;5542;48.272;10.794;2024-02-21T11:38:53;0.45;;;0.45;;
10977;SDS011;5542;48.272;10.794;2024-02-21T11:41:20;0.60;;;0.50;;
10977;SDS011;5542;48.272;10.794;2024-02-21T11:43:47;0.50;;;0.50;;
10977;SDS011;5542;48.272;10.794;2024-02-21T11:46:15;0.98;;;0.70;;
10977;SDS011;5542;48.272;10.794;2024-02-21T11:48:42;0.60;;;0.55;;
10977;SDS011;5542;48.272;10.794;2024-02-21T11:51:09;0.40;;;0.40;;
10977;SDS011;5542;48.272;10.794;2024-02-21T11:53:36;0.50;;;0.50;;
10977;SDS011;5542;48.272;10.794;2024-02-21T11:56:04;0.90;;;0.60;;
10977;SDS011;5542;48.272;10.794;2024-02-21T11:58:31;0.40;;;0.40;;
10977;SDS011;5542;48.272;10.794;2024-02-21T12:00:58;1.08;;;1.08;;
10977;SDS011;5542;48.272;10.794;2024-02-21T12:03:27;0.70;;;0.50;;
10977;SDS011;5542;48.272;10.794;2024-02-21T12:05:54;0.63;;;0.63;;
10977;SDS011;5542;48.272;10.794;2024-02-21T12:08:22;0.55;;;0.47;;
10977;SDS011;5542;48.272;10.794;2024-02-21T12:10:48;0.50;;;0.50;;
10977;SDS011;5542;48.272;10.794;2024-02-21T12:13:17;0.40;;;0.40;;
10977;SDS011;5542;48.272;10.794;2024-02-21T12:15:49;1.55;;;1.15;;
10977;SDS011;5542;48.272;10.794;2024-02-21T12:18:15;0.47;;;0.47;;
10977;SDS011;5542;48.272;10.794;2024-02-21T12:20:42;0.80;;;0.77;;
10977;SDS011;5542;48.272;10.794;2024-02-21T12:23:09;0.70;;;0.70;;
10977;SDS011;5542;48.272;10.794;2024-02-21T12:25:36;1.20;;;0.63;;
10977;SDS011;5542;48.272;10.794;2024-02-21T12:28:04;0.60;;;0.60;;
10977;SDS011;5542;48.272;10.794;2024-02-21T12:30:33;0.75;;;0.43;;
10977;SDS011;5542;48.272;10.794;2024-02-21T12:33:03;0.40;;;0.40;;
10977;SDS011;5542;48.272;10.794;2024-02-21T12:35:29;0.53;;;0.53;;
10977;SDS011;5542;48.272;10.794;2024-02-21T12:37:58;0.40;;;0.40;;
10977;SDS011;5542;48.272;10.794;2024-02-21T12:40:24;0.60;;;0.60;;
10977;SDS011;5542;48.272;10.794;2024-02-21T12:42:57;0.50;;;0.50;;
10977;SDS011;5542;48.272;10.794;2024-02-21T12:45:24;0.40;;;0.40;;
10977;SDS011;5542;48.272;10.794;2024-02-21T12:47:52;0.65;;;0.50;;
10977;SDS011;5542;48.272;10.794;2024-02-21T12:50:18;0.60;;;0.60;;
10977;SDS011;5542;48.272;10.794;2024-02-21T12:52:45;0.52;;;0.52;;
10977;SDS011;5542;48.272;10.794;2024-02-21T12:55:12;0.65;;;0.55;;
10977;SDS011;5542;48.272;10.794;2024-02-21T12:57:38;1.70;;;0.55;;
10977;SDS011;5542;48.272;10.794;2024-02-21T13:00:06;2.10;;;0.63;;
10977;SDS011;5542;48.272;10.794;2024-02-21T13:02:34;0.43;;;0.43;;
10977;SDS011;5542;48.272;10.794;2024-02-21T13:05:01;1.05;;;0.70;;
10977;SDS011;5542;48.272;10.794;2024-02-21T13:07:28;0.50;;;0.50;;
10977;SDS011;5542;48.272;10.794;2024-02-21T13:09:57;0.50;;;0.50;;
10977;SDS011;5542;48.272;10.794;2024-02-21T13:12:23;0.60;;;0.50;;
10977;SDS011;5542;48.272;10.794;2024-02-21T13:14:52;0.50;;;0.50;;
10977;SDS011;5542;48.272;10.794;2024-02-21T13:17:19;0.45;;;0.45;;
10977;SDS011;5542;48.272;10.794;2024-02-21T13:19:47;0.57;;;0.57;;
10977;SDS011;5542;48.272;10.794;2024-02-21T13:22:15;0.60;;;0.60;;
10977;SDS011;5542;48.272;10.794;2024-02-21T13:24:42;0.55;;;0.55;;
10977;SDS011;5542;48.272;10.794;2024-02-21T13:27:08;0.90;;;0.50;;
10977;SDS011;5542;48.272;10.794;2024-02-21T13:29:35;0.70;;;0.68;;
10977;SDS011;5542;48.272;10.794;2024-02-21T13:32:02;0.40;;;0.40;;
10977;SDS011;5542;48.272;10.794;2024-02-21T13:34:28;1.00;;;0.60;;
10977;SDS011;5542;48.272;10.794;2024-02-21T13:36:55;0.45;;;0.45;;
10977;SDS011;5542;48.272;10.794;2024-02-21T13:39:23;0.60;;;0.60;;
10977;SDS011;5542;48.272;10.794;2024-02-21T13:41:49;0.68;;;0.40;;
10977;SDS011;5542;48.272;10.794;2024-02-21T13:44:16;0.50;;;0.50;;
10977;SDS011;5542;48.272;10.794;2024-02-21T13:46:42;0.60;;;0.60;;
10977;SDS011;5542;48.272;10.794;2024-02-21T13:49:08;0.50;;;0.50;;
10977;SDS011;5542;48.272;10.794;2024-02-21T13:51:35;0.40;;;0.40;;
10977;SDS011;5542;48.272;10.794;2024-02-21T13:54:02;0.60;;;0.60;;
10977;SDS011;5542;48.272;10.794;2024-02-21T13:56:30;0.68;;;0.60;;
10977;SDS011;5542;48.272;10.794;2024-02-21T13:58:57;1.00;;;0.47;;
10977;SDS011;5542;48.272;10.794;2024-02-21T14:01:24;0.40;;;0.40;;
10977;SDS011;5542;48.272;10.794;2024-02-21T14:03:51;0.77;;;0.77;;
10977;SDS011;5542;48.272;10.794;2024-02-21T14:06:18;0.50;;;0.50;;
10977;SDS011;5542;48.272;10.794;2024-02-21T14:08:45;0.40;;;0.40;;
10977;SDS011;5542;48.272;10.794;2024-02-21T14:11:11;0.50;;;0.50;;
10977;SDS011;5542;48.272;10.794;2024-02-21T14:13:40;0.55;;;0.55;;
10977;SDS011;5542;48.272;10.794;2024-02-21T14:16:09;0.57;;;0.57;;
10977;SDS011;5542;48.272;10.794;2024-02-21T14:18:36;0.70;;;0.70;;
10977;SDS011;5542;48.272;10.794;2024-02-21T14:21:04;0.40;;;0.40;;
10977;SDS011;5542;48.272;10.794;2024-02-21T14:23:31;0.43;;;0.43;;
10977;SDS011;5542;48.272;10.794;2024-02-21T14:25:58;0.47;;;0.47;;
10977;SDS011;5542;48.272;10.794;2024-02-21T14:28:25;0.50;;;0.50;;
10977;SDS011;5542;48.272;10.794;2024-02-21T14:30:53;0.40;;;0.40;;
10977;SDS011;5542;48.272;10.794;2024-02-21T14:33:22;0.50;;;0.50;;
10977;SDS011;5542;48.272;10.794;2024-02-21T14:35:49;0.70;;;0.40;;
10977;SDS011;5542;48.272;10.794;2024-02-21T14:38:16;1.70;;;0.47;;
10977;SDS011;5542;48.272;10.794;2024-02-21T14:40:43;0.50;;;0.50;;
10977;SDS011;5542;48.272;10.794;2024-02-21T14:43:09;1.80;;;1.70;;
10977;SDS011;5542;48.272;10.794;2024-02-21T14:45:36;1.08;;;1.08;;
10977;SDS011;5542;48.272;10.794;2024-02-21T14:48:04;0.60;;;0.60;;
10977;SDS011;5542;48.272;10.794;2024-02-21T14:50:31;0.60;;;0.60;;